ECO28Y SLTR-SLRI
Flight info
| Callsign | ECO28Y |
|---|---|
| Flight time | 0h 46m |
| Altitude | 26000 |
| Route | MIKAL DCT BIXIN |
| Aircraft | RJ1H/M-SDFGIRWY/LB1 |
Departure
| Time | 2026-04-17 14:32 |
|---|---|
| Airport | Teniente Av. Jorge Henrich Arauz Airport (SLTR) |
Arrival
| Time | 2026-04-17 15:19 |
|---|---|
| Airport | Capitán Av. Selin Zeitun Lopez Airport (SLRI) |
| Time | Latitude | Longitude | Altitude | Speed | Heading |
|---|---|---|---|---|---|
| 2026-04-17 14:07 | -14.82212 | -64.91830 | 522 ft | 0 kts | 223° |
| 2026-04-17 14:19 | -14.82210 | -64.91829 | 522 ft | 2 kts | 222° |
| 2026-04-17 14:19 | -14.82196 | -64.91825 | 494 ft | 4 kts | 127° |
| 2026-04-17 14:20 | -14.82183 | -64.91849 | 528 ft | 4 kts | 121° |
| 2026-04-17 14:20 | -14.82175 | -64.91860 | 522 ft | 2 kts | 134° |
| 2026-04-17 14:24 | -14.82176 | -64.91859 | 522 ft | 0 kts | 131° |
| 2026-04-17 14:25 | -14.82177 | -64.91858 | 522 ft | 0 kts | 130° |
| 2026-04-17 14:25 | -14.82178 | -64.91857 | 522 ft | 0 kts | 125° |
| 2026-04-17 14:25 | -14.82178 | -64.91855 | 522 ft | 1 kts | 111° |
| 2026-04-17 14:26 | -14.82181 | -64.91846 | 522 ft | 2 kts | 108° |
| 2026-04-17 14:26 | -14.82186 | -64.91829 | 522 ft | 3 kts | 108° |
| 2026-04-17 14:26 | -14.82192 | -64.91812 | 522 ft | 2 kts | 108° |
| 2026-04-17 14:26 | -14.82195 | -64.91801 | 522 ft | 1 kts | 108° |
| 2026-04-17 14:27 | -14.82198 | -64.91791 | 522 ft | 2 kts | 108° |
| 2026-04-17 14:27 | -14.82199 | -64.91769 | 522 ft | 4 kts | 72° |
| 2026-04-17 14:27 | -14.82184 | -64.91732 | 522 ft | 6 kts | 83° |
| 2026-04-17 14:27 | -14.82212 | -64.91688 | 522 ft | 9 kts | 136° |
| 2026-04-17 14:28 | -14.82261 | -64.91639 | 522 ft | 11 kts | 136° |
| 2026-04-17 14:28 | -14.82311 | -64.91590 | 522 ft | 9 kts | 136° |
| 2026-04-17 14:28 | -14.82354 | -64.91546 | 522 ft | 8 kts | 136° |
| 2026-04-17 14:28 | -14.82392 | -64.91507 | 522 ft | 8 kts | 134° |
| 2026-04-17 14:29 | -14.82438 | -64.91459 | 522 ft | 10 kts | 134° |
| 2026-04-17 14:29 | -14.82494 | -64.91400 | 522 ft | 13 kts | 134° |
| 2026-04-17 14:29 | -14.82560 | -64.91331 | 522 ft | 13 kts | 135° |
| 2026-04-17 14:29 | -14.82622 | -64.91269 | 522 ft | 12 kts | 131° |
| 2026-04-17 14:30 | -14.82629 | -64.91200 | 522 ft | 9 kts | 84° |
| 2026-04-17 14:30 | -14.82622 | -64.91136 | 521 ft | 9 kts | 84° |
| 2026-04-17 14:30 | -14.82615 | -64.91073 | 520 ft | 8 kts | 79° |
| 2026-04-17 14:30 | -14.82588 | -64.91067 | 520 ft | 4 kts | 331° |
| 2026-04-17 14:31 | -14.82570 | -64.91084 | 520 ft | 3 kts | 314° |
| 2026-04-17 14:31 | -14.82569 | -64.91085 | 520 ft | 2 kts | 314° |
| 2026-04-17 14:31 | -14.82426 | -64.91232 | 520 ft | 55 kts | 315° |
| 2026-04-17 14:31 | -14.82045 | -64.91622 | 521 ft | 98 kts | 315° |
| 2026-04-17 14:32 | -14.81472 | -64.92207 | 519 ft | 133 kts | 315° |
| 2026-04-17 14:32 | -14.80748 | -64.92936 | 594 ft | 151 kts | 316° |
| 2026-04-17 14:32 | -14.79976 | -64.93691 | 898 ft | 153 kts | 317° |
| 2026-04-17 14:32 | -14.79164 | -64.94424 | 1342 ft | 161 kts | 319° |
| 2026-04-17 14:33 | -14.78334 | -64.95215 | 2079 ft | 161 kts | 317° |
| 2026-04-17 14:33 | -14.77487 | -64.96073 | 2482 ft | 183 kts | 319° |
| 2026-04-17 14:33 | -14.76527 | -64.97038 | 2958 ft | 197 kts | 316° |
| 2026-04-17 14:33 | -14.75584 | -64.98035 | 3910 ft | 197 kts | 315° |
| 2026-04-17 14:34 | -14.74632 | -64.99076 | 4804 ft | 200 kts | 315° |
| 2026-04-17 14:34 | -14.73389 | -64.99935 | 4958 ft | 238 kts | 345° |
| 2026-04-17 14:34 | -14.71647 | -64.99845 | 5023 ft | 265 kts | 24° |
| 2026-04-17 14:34 | -14.70272 | -64.98716 | 5980 ft | 240 kts | 56° |
| 2026-04-17 14:35 | -14.69513 | -64.97242 | 6589 ft | 237 kts | 64° |
| 2026-04-17 14:35 | -14.68768 | -64.95665 | 7017 ft | 251 kts | 62° |
| 2026-04-17 14:35 | -14.67883 | -64.94090 | 7609 ft | 256 kts | 56° |
| 2026-04-17 14:35 | -14.66834 | -64.92592 | 8279 ft | 259 kts | 51° |
| 2026-04-17 14:36 | -14.65641 | -64.91183 | 8978 ft | 262 kts | 46° |
| 2026-04-17 14:36 | -14.64236 | -64.89987 | 9668 ft | 265 kts | 24° |
| 2026-04-17 14:36 | -14.62494 | -64.89327 | 10305 ft | 268 kts | 17° |
| 2026-04-17 14:36 | -14.60696 | -64.88765 | 10901 ft | 272 kts | 15° |
| 2026-04-17 14:37 | -14.58856 | -64.88257 | 11566 ft | 276 kts | 14° |
| 2026-04-17 14:37 | -14.56942 | -64.87765 | 12037 ft | 289 kts | 14° |
| 2026-04-17 14:37 | -14.54988 | -64.87282 | 12644 ft | 294 kts | 14° |
| 2026-04-17 14:37 | -14.52985 | -64.86775 | 13315 ft | 297 kts | 14° |
| 2026-04-17 14:38 | -14.50963 | -64.86271 | 13949 ft | 301 kts | 14° |
| 2026-04-17 14:38 | -14.48916 | -64.85759 | 14512 ft | 304 kts | 14° |
| 2026-04-17 14:38 | -14.46854 | -64.85230 | 15070 ft | 307 kts | 15° |
| 2026-04-17 14:38 | -14.44775 | -64.84683 | 15592 ft | 310 kts | 15° |
| 2026-04-17 14:39 | -14.42674 | -64.84125 | 16106 ft | 313 kts | 15° |
| 2026-04-17 14:39 | -14.40547 | -64.83613 | 16586 ft | 316 kts | 6° |
| 2026-04-17 14:39 | -14.38378 | -64.83905 | 17029 ft | 319 kts | 336° |
| 2026-04-17 14:39 | -14.36535 | -64.85157 | 17477 ft | 320 kts | 319° |
| 2026-04-17 14:40 | -14.34869 | -64.86699 | 17929 ft | 323 kts | 316° |
| 2026-04-17 14:40 | -14.33217 | -64.88283 | 18350 ft | 325 kts | 316° |
| 2026-04-17 14:40 | -14.31560 | -64.89878 | 18750 ft | 327 kts | 316° |
| 2026-04-17 14:40 | -14.29879 | -64.91468 | 19129 ft | 329 kts | 317° |
| 2026-04-17 14:41 | -14.28177 | -64.93024 | 19501 ft | 331 kts | 319° |
| 2026-04-17 14:41 | -14.26425 | -64.94575 | 19857 ft | 333 kts | 320° |
| 2026-04-17 14:41 | -14.24664 | -64.96134 | 20199 ft | 335 kts | 318° |
| 2026-04-17 14:41 | -14.22897 | -64.97721 | 20533 ft | 338 kts | 320° |
| 2026-04-17 14:42 | -14.21103 | -64.99300 | 20839 ft | 340 kts | 320° |
| 2026-04-17 14:42 | -14.19292 | -65.00879 | 21124 ft | 344 kts | 320° |
| 2026-04-17 14:42 | -14.17417 | -65.02489 | 21144 ft | 355 kts | 320° |
| 2026-04-17 14:42 | -14.15521 | -65.04133 | 21377 ft | 357 kts | 320° |
| 2026-04-17 14:43 | -14.13616 | -65.05790 | 21647 ft | 359 kts | 320° |
| 2026-04-17 14:43 | -14.11709 | -65.07453 | 21910 ft | 360 kts | 320° |
| 2026-04-17 14:43 | -14.09788 | -65.09129 | 22171 ft | 362 kts | 320° |
| 2026-04-17 14:43 | -14.07864 | -65.10814 | 22436 ft | 363 kts | 320° |
| 2026-04-17 14:44 | -14.05932 | -65.12503 | 22694 ft | 365 kts | 320° |
| 2026-04-17 14:44 | -14.03984 | -65.14182 | 22944 ft | 366 kts | 321° |
| 2026-04-17 14:44 | -14.02025 | -65.15873 | 23188 ft | 368 kts | 322° |
| 2026-04-17 14:44 | -13.99883 | -65.17325 | 23417 ft | 368 kts | 333° |
| 2026-04-17 14:45 | -13.97576 | -65.18389 | 23626 ft | 369 kts | 341° |
| 2026-04-17 14:45 | -13.95142 | -65.19226 | 23836 ft | 369 kts | 345° |
| 2026-04-17 14:45 | -13.92665 | -65.19931 | 24052 ft | 370 kts | 346° |
| 2026-04-17 14:45 | -13.90167 | -65.20565 | 24258 ft | 371 kts | 347° |
| 2026-04-17 14:46 | -13.87653 | -65.21189 | 24469 ft | 371 kts | 347° |
| 2026-04-17 14:46 | -13.85134 | -65.21810 | 24644 ft | 373 kts | 347° |
| 2026-04-17 14:46 | -13.82610 | -65.22448 | 24865 ft | 374 kts | 346° |
| 2026-04-17 14:46 | -13.80088 | -65.23090 | 25048 ft | 374 kts | 346° |
| 2026-04-17 14:47 | -13.77564 | -65.23736 | 25221 ft | 374 kts | 346° |
| 2026-04-17 14:47 | -13.75043 | -65.24381 | 25409 ft | 373 kts | 346° |
| 2026-04-17 14:47 | -13.72529 | -65.25062 | 25609 ft | 372 kts | 345° |
| 2026-04-17 14:47 | -13.70059 | -65.25736 | 25768 ft | 372 kts | 345° |
| 2026-04-17 14:48 | -13.67554 | -65.26403 | 25895 ft | 372 kts | 345° |
| 2026-04-17 14:48 | -13.65032 | -65.27062 | 25933 ft | 376 kts | 345° |
| 2026-04-17 14:48 | -13.62472 | -65.27728 | 25951 ft | 382 kts | 345° |
| 2026-04-17 14:48 | -13.59883 | -65.28411 | 25952 ft | 387 kts | 345° |
| 2026-04-17 14:49 | -13.57255 | -65.29100 | 25958 ft | 392 kts | 345° |
| 2026-04-17 14:49 | -13.54593 | -65.29805 | 25956 ft | 396 kts | 345° |
| 2026-04-17 14:49 | -13.51910 | -65.30503 | 25967 ft | 398 kts | 346° |
| 2026-04-17 14:49 | -13.49221 | -65.31202 | 25949 ft | 399 kts | 345° |
| 2026-04-17 14:50 | -13.46540 | -65.31928 | 25938 ft | 398 kts | 345° |
| 2026-04-17 14:50 | -13.43851 | -65.32637 | 25932 ft | 399 kts | 345° |
| 2026-04-17 14:50 | -13.41150 | -65.33343 | 25929 ft | 400 kts | 345° |
| 2026-04-17 14:50 | -13.38452 | -65.34046 | 25928 ft | 400 kts | 346° |
| 2026-04-17 14:51 | -13.35788 | -65.34741 | 25930 ft | 400 kts | 345° |
| 2026-04-17 14:51 | -13.33092 | -65.35445 | 25928 ft | 400 kts | 345° |
| 2026-04-17 14:51 | -13.30399 | -65.36147 | 25930 ft | 400 kts | 345° |
| 2026-04-17 14:51 | -13.27700 | -65.36868 | 25929 ft | 400 kts | 345° |
| 2026-04-17 14:52 | -13.25011 | -65.37597 | 25928 ft | 399 kts | 345° |
| 2026-04-17 14:52 | -13.22329 | -65.38321 | 25927 ft | 399 kts | 346° |
| 2026-04-17 14:52 | -13.19642 | -65.39021 | 25927 ft | 399 kts | 346° |
| 2026-04-17 14:52 | -13.16944 | -65.39711 | 25928 ft | 398 kts | 346° |
| 2026-04-17 14:53 | -13.14256 | -65.40416 | 25925 ft | 398 kts | 346° |
| 2026-04-17 14:53 | -13.11572 | -65.41130 | 25927 ft | 398 kts | 346° |
| 2026-04-17 14:53 | -13.08890 | -65.41841 | 25927 ft | 398 kts | 346° |
| 2026-04-17 14:53 | -13.06202 | -65.42540 | 25928 ft | 398 kts | 346° |
| 2026-04-17 14:54 | -13.03511 | -65.43230 | 25934 ft | 399 kts | 346° |
| 2026-04-17 14:54 | -13.00820 | -65.43941 | 25933 ft | 399 kts | 345° |
| 2026-04-17 14:54 | -12.98157 | -65.44649 | 25932 ft | 401 kts | 346° |
| 2026-04-17 14:54 | -12.95440 | -65.45365 | 25933 ft | 405 kts | 346° |
| 2026-04-17 14:55 | -12.92707 | -65.46071 | 25932 ft | 406 kts | 346° |
| 2026-04-17 14:55 | -12.89967 | -65.46773 | 25929 ft | 406 kts | 346° |
| 2026-04-17 14:55 | -12.87224 | -65.47487 | 25927 ft | 405 kts | 346° |
| 2026-04-17 14:55 | -12.84494 | -65.48217 | 25926 ft | 405 kts | 346° |
| 2026-04-17 14:56 | -12.81764 | -65.48925 | 25928 ft | 405 kts | 346° |
| 2026-04-17 14:56 | -12.79029 | -65.49630 | 25927 ft | 405 kts | 346° |
| 2026-04-17 14:56 | -12.76304 | -65.50354 | 25928 ft | 405 kts | 346° |
| 2026-04-17 14:56 | -12.73577 | -65.51069 | 25927 ft | 405 kts | 346° |
| 2026-04-17 14:57 | -12.70840 | -65.51773 | 25921 ft | 405 kts | 346° |
| 2026-04-17 14:57 | -12.68108 | -65.52490 | 25921 ft | 406 kts | 346° |
| 2026-04-17 14:57 | -12.65371 | -65.53215 | 25923 ft | 406 kts | 346° |
| 2026-04-17 14:57 | -12.62633 | -65.53926 | 25923 ft | 406 kts | 346° |
| 2026-04-17 14:58 | -12.59901 | -65.54653 | 25926 ft | 405 kts | 345° |
| 2026-04-17 14:58 | -12.57206 | -65.55361 | 25926 ft | 405 kts | 346° |
| 2026-04-17 14:58 | -12.54434 | -65.56068 | 25926 ft | 405 kts | 346° |
| 2026-04-17 14:58 | -12.51700 | -65.56778 | 25926 ft | 405 kts | 346° |
| 2026-04-17 14:59 | -12.48970 | -65.57503 | 25923 ft | 405 kts | 346° |
| 2026-04-17 14:59 | -12.46266 | -65.58211 | 25927 ft | 405 kts | 346° |
| 2026-04-17 14:59 | -12.43531 | -65.58911 | 25926 ft | 405 kts | 346° |
| 2026-04-17 14:59 | -12.40795 | -65.59632 | 25925 ft | 406 kts | 346° |
| 2026-04-17 15:00 | -12.38064 | -65.60355 | 25925 ft | 405 kts | 346° |
| 2026-04-17 15:00 | -12.35298 | -65.61064 | 25485 ft | 412 kts | 346° |
| 2026-04-17 15:00 | -12.32521 | -65.61774 | 24999 ft | 412 kts | 346° |
| 2026-04-17 15:00 | -12.29743 | -65.62492 | 24520 ft | 412 kts | 346° |
| 2026-04-17 15:01 | -12.26966 | -65.63216 | 24097 ft | 413 kts | 346° |
| 2026-04-17 15:01 | -12.24176 | -65.63953 | 23679 ft | 414 kts | 346° |
| 2026-04-17 15:01 | -12.21381 | -65.64697 | 23204 ft | 415 kts | 347° |
| 2026-04-17 15:01 | -12.18590 | -65.65417 | 22697 ft | 412 kts | 347° |
| 2026-04-17 15:02 | -12.15824 | -65.66123 | 22199 ft | 408 kts | 347° |
| 2026-04-17 15:02 | -12.13084 | -65.66840 | 21699 ft | 405 kts | 347° |
| 2026-04-17 15:02 | -12.10364 | -65.67561 | 21211 ft | 402 kts | 347° |
| 2026-04-17 15:02 | -12.07664 | -65.68252 | 20732 ft | 399 kts | 347° |
| 2026-04-17 15:03 | -12.05018 | -65.68933 | 20263 ft | 396 kts | 347° |
| 2026-04-17 15:03 | -12.02359 | -65.69640 | 19799 ft | 393 kts | 347° |
| 2026-04-17 15:03 | -11.99713 | -65.70323 | 19346 ft | 389 kts | 347° |
| 2026-04-17 15:03 | -11.97093 | -65.70982 | 18894 ft | 385 kts | 347° |
| 2026-04-17 15:04 | -11.94515 | -65.71653 | 18459 ft | 378 kts | 347° |
| 2026-04-17 15:04 | -11.92000 | -65.72326 | 17979 ft | 370 kts | 347° |
| 2026-04-17 15:04 | -11.89525 | -65.72977 | 17470 ft | 364 kts | 347° |
| 2026-04-17 15:04 | -11.87094 | -65.73609 | 16976 ft | 358 kts | 347° |
| 2026-04-17 15:05 | -11.85506 | -65.74019 | 16658 ft | 354 kts | 347° |
| 2026-04-17 15:05 | -11.83135 | -65.74631 | 16197 ft | 348 kts | 347° |
| 2026-04-17 15:05 | -11.80803 | -65.75231 | 15733 ft | 343 kts | 347° |
| 2026-04-17 15:05 | -11.77759 | -65.76018 | 15145 ft | 338 kts | 347° |
| 2026-04-17 15:06 | -11.76220 | -65.76415 | 14848 ft | 335 kts | 347° |
| 2026-04-17 15:06 | -11.73976 | -65.76993 | 14434 ft | 331 kts | 347° |
| 2026-04-17 15:06 | -11.71783 | -65.77561 | 14029 ft | 327 kts | 347° |
| 2026-04-17 15:06 | -11.69588 | -65.78127 | 13611 ft | 324 kts | 347° |
| 2026-04-17 15:07 | -11.67415 | -65.78687 | 13178 ft | 320 kts | 347° |
| 2026-04-17 15:07 | -11.65266 | -65.79244 | 12746 ft | 316 kts | 347° |
| 2026-04-17 15:07 | -11.63151 | -65.79802 | 12328 ft | 313 kts | 346° |
| 2026-04-17 15:07 | -11.61057 | -65.80353 | 11924 ft | 309 kts | 346° |
| 2026-04-17 15:08 | -11.58988 | -65.80896 | 11555 ft | 305 kts | 346° |
| 2026-04-17 15:08 | -11.56944 | -65.81431 | 11174 ft | 301 kts | 347° |
| 2026-04-17 15:08 | -11.54916 | -65.81946 | 10796 ft | 298 kts | 346° |
| 2026-04-17 15:08 | -11.52914 | -65.82457 | 10426 ft | 295 kts | 345° |
| 2026-04-17 15:09 | -11.50932 | -65.82968 | 10052 ft | 292 kts | 345° |
| 2026-04-17 15:09 | -11.48999 | -65.83461 | 9685 ft | 289 kts | 345° |
| 2026-04-17 15:09 | -11.47061 | -65.83952 | 9269 ft | 285 kts | 345° |
| 2026-04-17 15:09 | -11.45148 | -65.84457 | 8867 ft | 283 kts | 345° |
| 2026-04-17 15:10 | -11.43248 | -65.84956 | 8464 ft | 280 kts | 345° |
| 2026-04-17 15:10 | -11.41369 | -65.85441 | 8070 ft | 278 kts | 345° |
| 2026-04-17 15:10 | -11.39499 | -65.85932 | 7687 ft | 276 kts | 345° |
| 2026-04-17 15:11 | -11.35816 | -65.86880 | 6995 ft | 269 kts | 345° |
| 2026-04-17 15:11 | -11.34019 | -65.87356 | 6688 ft | 266 kts | 345° |
| 2026-04-17 15:11 | -11.32214 | -65.87805 | 6384 ft | 268 kts | 346° |
| 2026-04-17 15:11 | -11.30403 | -65.88267 | 6066 ft | 269 kts | 344° |
| 2026-04-17 15:12 | -11.28589 | -65.88756 | 5755 ft | 270 kts | 345° |
| 2026-04-17 15:12 | -11.26758 | -65.89234 | 5455 ft | 271 kts | 345° |
| 2026-04-17 15:12 | -11.24997 | -65.89672 | 5154 ft | 252 kts | 346° |
| 2026-04-17 15:12 | -11.23340 | -65.90093 | 4909 ft | 240 kts | 345° |
| 2026-04-17 15:13 | -11.21750 | -65.90535 | 4668 ft | 234 kts | 344° |
| 2026-04-17 15:13 | -11.20191 | -65.90941 | 4384 ft | 228 kts | 346° |
| 2026-04-17 15:13 | -11.18685 | -65.91335 | 4193 ft | 220 kts | 344° |
| 2026-04-17 15:13 | -11.17228 | -65.91719 | 3891 ft | 212 kts | 345° |
| 2026-04-17 15:14 | -11.15808 | -65.92086 | 3694 ft | 212 kts | 344° |
| 2026-04-17 15:14 | -11.14371 | -65.92454 | 3534 ft | 214 kts | 345° |
| 2026-04-17 15:14 | -11.12922 | -65.92811 | 3415 ft | 215 kts | 345° |
| 2026-04-17 15:14 | -11.11559 | -65.93329 | 3303 ft | 200 kts | 318° |
| 2026-04-17 15:15 | -11.10699 | -65.94323 | 3282 ft | 180 kts | 308° |
| 2026-04-17 15:15 | -11.09938 | -65.95279 | 3280 ft | 167 kts | 308° |
| 2026-04-17 15:15 | -11.09248 | -65.96184 | 3203 ft | 157 kts | 306° |
| 2026-04-17 15:15 | -11.08612 | -65.97055 | 3061 ft | 151 kts | 305° |
| 2026-04-17 15:16 | -11.08001 | -65.97900 | 2922 ft | 145 kts | 304° |
| 2026-04-17 15:16 | -11.07418 | -65.98698 | 2719 ft | 137 kts | 305° |
| 2026-04-17 15:16 | -11.06860 | -65.99463 | 2439 ft | 135 kts | 306° |
| 2026-04-17 15:16 | -11.06309 | -66.00233 | 2108 ft | 134 kts | 304° |
| 2026-04-17 15:17 | -11.05751 | -66.01023 | 1683 ft | 140 kts | 304° |
| 2026-04-17 15:17 | -11.05175 | -66.01810 | 1351 ft | 136 kts | 306° |
| 2026-04-17 15:17 | -11.04602 | -66.02565 | 1105 ft | 134 kts | 308° |
| 2026-04-17 15:17 | -11.04040 | -66.03314 | 950 ft | 132 kts | 307° |
| 2026-04-17 15:18 | -11.03491 | -66.04060 | 834 ft | 132 kts | 308° |
| 2026-04-17 15:18 | -11.02917 | -66.04814 | 743 ft | 138 kts | 307° |
| 2026-04-17 15:18 | -11.02341 | -66.05599 | 641 ft | 137 kts | 310° |
| 2026-04-17 15:18 | -11.01768 | -66.06355 | 557 ft | 132 kts | 308° |
| 2026-04-17 15:19 | -11.01232 | -66.07077 | 474 ft | 120 kts | 307° |
| 2026-04-17 15:19 | -11.00801 | -66.07663 | 469 ft | 81 kts | 307° |
| 2026-04-17 15:19 | -11.00562 | -66.07981 | 470 ft | 34 kts | 326° |
| 2026-04-17 15:19 | -11.00499 | -66.07961 | 470 ft | 0 kts | 196° |
| 2026-04-17 15:20 | -11.00542 | -66.07961 | 470 ft | 13 kts | 158° |
| 2026-04-17 15:20 | -11.00559 | -66.07931 | 470 ft | 0 kts | 105° |